createdAt,value
2022-08-18T00:00:02.188Z,5.10
2022-08-18T00:00:15.315Z,4.90
2022-08-18T00:00:22.225Z,5.00
2022-08-18T00:00:32.095Z,5.00
2022-08-18T00:00:42.143Z,5.30
2022-08-18T00:00:52.035Z,5.00
2022-08-18T00:01:02.178Z,5.00
2022-08-18T00:01:13.404Z,4.80
2022-08-18T00:01:22.148Z,5.20
2022-08-18T00:01:32.286Z,5.20
2022-08-18T00:01:42.269Z,5.30
2022-08-18T00:01:52.086Z,5.10
2022-08-18T00:02:02.183Z,5.10
2022-08-18T00:02:12.029Z,5.10
2022-08-18T00:02:28.161Z,5.10
2022-08-18T00:02:32.197Z,5.30
2022-08-18T00:02:49.722Z,5.60
2022-08-18T00:03:00.756Z,5.70
2022-08-18T00:03:11.745Z,5.50
2022-08-18T00:03:24.595Z,5.30
2022-08-18T00:03:53.054Z,5.20
2022-08-18T00:03:56.327Z,5.10
2022-08-18T00:03:56.580Z,5.00
2022-08-18T00:03:57.285Z,5.10
2022-08-18T00:04:03.605Z,5.20
2022-08-18T00:04:34.771Z,5.30
2022-08-18T00:04:34.791Z,5.30
2022-08-18T00:04:35.399Z,5.30
2022-08-18T00:04:48.686Z,5.30
2022-08-18T00:04:54.510Z,5.30
2022-08-18T00:05:02.167Z,5.30
2022-08-18T00:05:11.999Z,5.40
2022-08-18T00:05:22.207Z,5.40
2022-08-18T00:05:32.099Z,5.40
2022-08-18T00:05:42.051Z,5.30
2022-08-18T00:05:52.019Z,5.30
2022-08-18T00:06:02.159Z,5.40
2022-08-18T00:06:12.227Z,5.20
2022-08-18T00:06:22.095Z,5.50
2022-08-18T00:06:32.156Z,5.40
2022-08-18T00:06:42.182Z,5.60
2022-08-18T00:06:52.014Z,5.20
2022-08-18T00:07:01.984Z,5.30
2022-08-18T00:07:12.158Z,5.30
2022-08-18T00:07:22.221Z,5.40
2022-08-18T00:07:32.146Z,5.40
2022-08-18T00:07:42.115Z,5.30
2022-08-18T00:07:52.066Z,5.30
2022-08-18T00:08:01.995Z,5.20
2022-08-18T00:08:12.127Z,5.30
2022-08-18T00:08:22.053Z,5.30
2022-08-18T00:08:35.979Z,5.30
2022-08-18T00:08:42.067Z,5.30
2022-08-18T00:08:52.978Z,5.30
2022-08-18T00:09:02.130Z,5.30
2022-08-18T00:09:11.998Z,5.10
2022-08-18T00:09:22.194Z,5.20
2022-08-18T00:09:33.041Z,5.40
2022-08-18T00:09:42.106Z,5.70
2022-08-18T00:09:52.064Z,5.40
2022-08-18T00:10:01.960Z,5.20
2022-08-18T00:10:18.694Z,4.80
2022-08-18T00:10:22.039Z,4.80
2022-08-18T00:10:32.240Z,4.80
2022-08-18T00:10:42.159Z,5.10
2022-08-18T00:10:52.239Z,5.20
2022-08-18T00:11:02.248Z,5.30
2022-08-18T00:11:12.107Z,5.30
2022-08-18T00:11:22.274Z,5.20
2022-08-18T00:11:40.969Z,5.30
2022-08-18T00:11:42.278Z,5.20
2022-08-18T00:11:52.030Z,5.10
2022-08-18T00:12:01.985Z,5.00
2022-08-18T00:12:12.215Z,5.10
2022-08-18T00:12:22.181Z,5.20
2022-08-18T00:12:32.177Z,5.30
2022-08-18T00:12:42.182Z,5.30
2022-08-18T00:12:52.435Z,5.30
2022-08-18T00:13:02.239Z,5.20
2022-08-18T00:13:12.245Z,5.10
2022-08-18T00:13:22.253Z,5.10
2022-08-18T00:13:31.973Z,5.10
2022-08-18T00:13:42.114Z,5.00
2022-08-18T00:13:52.234Z,5.00
2022-08-18T00:14:01.985Z,4.80
2022-08-18T00:14:12.157Z,4.90
2022-08-18T00:14:22.899Z,5.00
2022-08-18T00:14:32.187Z,5.20
2022-08-18T00:14:42.178Z,5.40
2022-08-18T00:14:51.961Z,5.30
2022-08-18T00:15:02.008Z,5.30
2022-08-18T00:15:12.034Z,5.20
2022-08-18T00:15:22.102Z,5.20
2022-08-18T00:15:32.166Z,5.20
2022-08-18T00:15:42.039Z,5.10
2022-08-18T00:15:52.231Z,5.20
2022-08-18T00:16:02.062Z,5.30
2022-08-18T00:16:12.203Z,5.20
2022-08-18T00:16:22.040Z,5.10
2022-08-18T00:16:32.066Z,5.00
2022-08-18T00:16:42.142Z,5.10
2022-08-18T00:16:52.161Z,5.20
2022-08-18T00:17:01.995Z,5.40
2022-08-18T00:17:12.211Z,5.60
2022-08-18T00:17:22.015Z,5.40
2022-08-18T00:17:32.091Z,5.10
2022-08-18T00:17:42.146Z,5.00
2022-08-18T00:17:52.235Z,5.00
2022-08-18T00:18:02.225Z,5.30
2022-08-18T00:18:12.121Z,5.30
2022-08-18T00:18:21.979Z,5.30
2022-08-18T00:18:32.192Z,5.10
2022-08-18T00:18:42.096Z,5.20
2022-08-18T00:18:52.190Z,5.40
2022-08-18T00:19:05.795Z,5.20
2022-08-18T00:19:12.268Z,5.10
2022-08-18T00:19:45.601Z,5.30
2022-08-18T00:19:46.544Z,5.00
2022-08-18T00:19:46.778Z,5.20
2022-08-18T00:19:51.969Z,5.50
2022-08-18T00:20:02.131Z,5.60
2022-08-18T00:20:12.187Z,5.60
2022-08-18T00:20:22.002Z,5.50
2022-08-18T00:20:31.982Z,5.30
2022-08-18T00:20:42.036Z,5.10
2022-08-18T00:20:52.143Z,5.20
2022-08-18T00:21:02.230Z,5.40
2022-08-18T00:21:11.976Z,5.50
2022-08-18T00:21:22.132Z,5.40
2022-08-18T00:21:32.178Z,5.40
2022-08-18T00:21:42.106Z,5.60
2022-08-18T00:21:52.067Z,5.50
2022-08-18T00:22:01.981Z,5.40
2022-08-18T00:22:15.117Z,5.20
2022-08-18T00:22:22.161Z,5.20
2022-08-18T00:22:32.057Z,5.20
2022-08-18T00:22:42.269Z,5.00
2022-08-18T00:22:52.550Z,5.00
2022-08-18T00:23:02.083Z,4.80
2022-08-18T00:23:12.038Z,4.90
2022-08-18T00:23:22.078Z,4.60
2022-08-18T00:23:31.999Z,4.80
2022-08-18T00:23:42.180Z,4.70
2022-08-18T00:23:52.250Z,5.20
2022-08-18T00:24:02.002Z,5.10
2022-08-18T00:24:12.013Z,5.40
2022-08-18T00:24:22.015Z,5.30
2022-08-18T00:24:32.159Z,5.30
2022-08-18T00:24:48.727Z,5.40
2022-08-18T00:24:52.192Z,5.30
2022-08-18T00:25:02.140Z,5.50
2022-08-18T00:25:12.043Z,5.40
2022-08-18T00:25:22.003Z,5.20
2022-08-18T00:25:32.080Z,4.90
2022-08-18T00:25:42.262Z,4.90
2022-08-18T00:25:52.255Z,5.10
2022-08-18T00:26:02.197Z,5.10
2022-08-18T00:26:12.253Z,5.10
2022-08-18T00:26:22.013Z,4.90
2022-08-18T00:26:36.700Z,5.10
2022-08-18T00:26:42.179Z,5.10
2022-08-18T00:26:52.133Z,5.60
2022-08-18T00:27:02.019Z,5.40
2022-08-18T00:27:12.049Z,5.50
2022-08-18T00:27:23.312Z,5.10
2022-08-18T00:27:32.221Z,5.10
2022-08-18T00:27:42.190Z,4.80
2022-08-18T00:27:52.263Z,4.80
2022-08-18T00:28:02.016Z,5.00
2022-08-18T00:28:12.230Z,5.30
2022-08-18T00:28:23.943Z,5.20
2022-08-18T00:28:31.987Z,5.10
2022-08-18T00:28:42.036Z,5.00
2022-08-18T00:28:52.255Z,5.20
2022-08-18T00:29:02.052Z,5.30
2022-08-18T00:29:12.126Z,5.40
2022-08-18T00:29:22.096Z,5.50
2022-08-18T00:29:31.991Z,5.60
2022-08-18T00:29:42.271Z,5.30
2022-08-18T00:29:52.048Z,5.30
2022-08-18T00:30:02.098Z,5.10
2022-08-18T00:30:12.223Z,5.20
2022-08-18T00:30:22.184Z,5.00
2022-08-18T00:30:32.142Z,5.00
2022-08-18T00:30:42.000Z,5.10
2022-08-18T00:30:54.157Z,5.10
2022-08-18T00:31:02.091Z,5.00
2022-08-18T00:31:12.241Z,5.10
2022-08-18T00:31:22.134Z,5.00
2022-08-18T00:31:32.040Z,5.00
2022-08-18T00:31:42.109Z,4.80
2022-08-18T00:31:52.200Z,4.70
2022-08-18T00:32:02.189Z,4.70
2022-08-18T00:32:12.047Z,4.50
2022-08-18T00:32:22.134Z,4.70
2022-08-18T00:32:32.230Z,4.90
2022-08-18T00:32:41.992Z,5.10
2022-08-18T00:32:52.415Z,5.00
2022-08-18T00:33:02.034Z,4.80
2022-08-18T00:33:11.992Z,4.90
2022-08-18T00:33:21.977Z,5.00
2022-08-18T00:33:32.199Z,5.20
2022-08-18T00:33:41.984Z,5.20
2022-08-18T00:33:52.054Z,5.10
2022-08-18T00:34:02.147Z,5.10
2022-08-18T00:34:12.135Z,5.00
2022-08-18T00:34:22.200Z,5.10
2022-08-18T00:34:32.407Z,5.20
2022-08-18T00:34:42.072Z,5.10
2022-08-18T00:34:52.228Z,5.10
2022-08-18T00:35:02.145Z,5.00
2022-08-18T00:35:12.163Z,4.90
2022-08-18T00:35:21.988Z,4.90
2022-08-18T00:35:32.016Z,5.00
2022-08-18T00:35:42.111Z,5.10
2022-08-18T00:35:52.150Z,5.00
2022-08-18T00:36:02.249Z,4.90
2022-08-18T00:36:12.262Z,4.70
2022-08-18T00:36:22.081Z,4.70
2022-08-18T00:36:32.218Z,4.70
2022-08-18T00:36:42.184Z,5.00
2022-08-18T00:36:52.016Z,5.10
2022-08-18T00:37:01.980Z,5.30
2022-08-18T00:37:12.046Z,5.30
2022-08-18T00:37:22.212Z,5.00
2022-08-18T00:37:32.156Z,5.10
2022-08-18T00:37:42.141Z,5.00
2022-08-18T00:37:52.238Z,5.20
2022-08-18T00:38:02.221Z,5.30
2022-08-18T00:38:24.247Z,5.40
2022-08-18T00:38:24.493Z,5.60
2022-08-18T00:38:32.021Z,5.40
2022-08-18T00:38:42.131Z,5.30
2022-08-18T00:38:52.002Z,5.00
2022-08-18T00:39:02.036Z,4.90
2022-08-18T00:39:12.088Z,5.10
2022-08-18T00:39:22.124Z,5.20
2022-08-18T00:39:34.959Z,5.20
2022-08-18T00:39:46.052Z,5.10
2022-08-18T00:39:52.223Z,5.10
2022-08-18T00:40:02.104Z,5.10
2022-08-18T00:40:12.058Z,5.00
2022-08-18T00:40:22.103Z,4.90
2022-08-18T00:40:37.185Z,4.80
2022-08-18T00:40:42.209Z,4.90
2022-08-18T00:40:52.139Z,5.40
2022-08-18T00:41:02.254Z,5.30
2022-08-18T00:41:12.103Z,5.40
2022-08-18T00:41:22.142Z,5.10
2022-08-18T00:41:32.245Z,5.50
2022-08-18T00:41:42.125Z,5.10
2022-08-18T00:41:52.083Z,5.20
2022-08-18T00:42:02.012Z,4.90
2022-08-18T00:42:12.145Z,5.20
2022-08-18T00:42:28.970Z,5.20
2022-08-18T00:42:32.068Z,5.50
2022-08-18T00:42:42.255Z,5.50
2022-08-18T00:42:52.596Z,5.30
2022-08-18T00:43:02.021Z,5.10
2022-08-18T00:43:12.167Z,5.00
2022-08-18T00:43:21.961Z,5.10
2022-08-18T00:43:32.117Z,5.20
2022-08-18T00:43:42.195Z,5.60
2022-08-18T00:43:52.160Z,5.40
2022-08-18T00:44:02.217Z,5.60
2022-08-18T00:44:12.207Z,5.20
2022-08-18T00:44:22.102Z,5.30
2022-08-18T00:44:32.037Z,5.10
2022-08-18T00:44:42.118Z,5.10
2022-08-18T00:44:52.200Z,5.10
2022-08-18T00:45:02.055Z,5.30
2022-08-18T00:45:12.056Z,5.20
2022-08-18T00:45:22.171Z,5.20
2022-08-18T00:45:32.019Z,5.10
2022-08-18T00:45:42.009Z,5.10
2022-08-18T00:45:52.016Z,5.10
2022-08-18T00:46:02.347Z,5.10
2022-08-18T00:46:12.149Z,5.20
2022-08-18T00:46:22.043Z,5.20
2022-08-18T00:46:32.178Z,4.90
2022-08-18T00:46:42.208Z,4.90
2022-08-18T00:46:51.961Z,4.90
2022-08-18T00:47:02.107Z,4.90
2022-08-18T00:47:12.071Z,5.00
2022-08-18T00:47:32.849Z,5.00
2022-08-18T00:47:36.374Z,5.30
2022-08-18T00:47:43.309Z,5.10
2022-08-18T00:47:52.486Z,5.00
2022-08-18T00:48:02.168Z,4.90
2022-08-18T00:48:12.085Z,5.00
2022-08-18T00:48:23.879Z,5.00
2022-08-18T00:48:32.210Z,4.80
2022-08-18T00:48:48.347Z,4.90
2022-08-18T00:48:52.064Z,4.90
2022-08-18T00:49:02.170Z,5.00
2022-08-18T00:49:12.249Z,4.80
2022-08-18T00:49:22.166Z,5.00
2022-08-18T00:49:32.214Z,4.80
2022-08-18T00:49:42.023Z,4.80
2022-08-18T00:49:52.223Z,4.70
2022-08-18T00:50:02.113Z,4.80
2022-08-18T00:50:13.538Z,5.00
2022-08-18T00:50:22.210Z,5.00
2022-08-18T00:50:32.065Z,4.80
2022-08-18T00:50:42.117Z,4.60
2022-08-18T00:50:52.236Z,4.40
2022-08-18T00:51:02.100Z,4.60
2022-08-18T00:51:11.989Z,4.70
2022-08-18T00:51:22.138Z,4.80
2022-08-18T00:51:32.068Z,5.00
2022-08-18T00:51:42.187Z,5.20
2022-08-18T00:51:52.104Z,5.30
2022-08-18T00:52:02.101Z,5.10
2022-08-18T00:52:12.025Z,4.90
2022-08-18T00:52:22.182Z,5.00
2022-08-18T00:52:32.141Z,5.00
2022-08-18T00:52:41.995Z,5.10
2022-08-18T00:52:52.129Z,5.20
2022-08-18T00:53:02.136Z,5.10
2022-08-18T00:53:12.180Z,5.20
2022-08-18T00:53:22.188Z,5.10
2022-08-18T00:53:32.104Z,5.10
2022-08-18T00:53:42.207Z,4.80
2022-08-18T00:53:51.980Z,4.60
2022-08-18T00:54:02.231Z,4.60
2022-08-18T00:54:12.065Z,4.70
2022-08-18T00:54:22.154Z,4.80
2022-08-18T00:54:32.086Z,5.10
2022-08-18T00:54:42.134Z,5.40
2022-08-18T00:54:52.118Z,5.40
2022-08-18T00:55:02.152Z,5.20
2022-08-18T00:55:12.192Z,5.20
2022-08-18T00:55:22.262Z,5.20
2022-08-18T00:55:32.215Z,5.30
2022-08-18T00:55:53.846Z,5.30
2022-08-18T00:55:54.154Z,5.10
2022-08-18T00:56:02.008Z,5.00
2022-08-18T00:56:12.006Z,5.10
2022-08-18T00:56:22.228Z,4.70
2022-08-18T00:56:32.208Z,5.00
2022-08-18T00:56:42.261Z,4.90
2022-08-18T00:56:51.964Z,4.90
2022-08-18T00:57:02.129Z,4.90
2022-08-18T00:57:12.088Z,4.70
2022-08-18T00:57:22.073Z,4.70
2022-08-18T00:57:32.207Z,4.60
2022-08-18T00:57:42.233Z,4.90
2022-08-18T00:57:52.417Z,5.10
2022-08-18T00:58:02.065Z,5.20
2022-08-18T00:58:12.006Z,4.90
2022-08-18T00:58:22.060Z,4.80
2022-08-18T00:58:32.159Z,4.70
2022-08-18T00:58:42.143Z,4.70
2022-08-18T00:58:52.219Z,4.80
2022-08-18T00:59:02.220Z,4.80
2022-08-18T00:59:12.204Z,5.10
2022-08-18T00:59:22.251Z,4.70
2022-08-18T00:59:32.161Z,4.80
2022-08-18T00:59:42.206Z,4.70
2022-08-18T00:59:52.081Z,4.90
2022-08-18T01:00:02.130Z,4.80
2022-08-18T01:00:12.281Z,4.60
2022-08-18T01:00:22.097Z,4.80
2022-08-18T01:00:32.236Z,4.90
2022-08-18T01:00:42.039Z,4.90
2022-08-18T01:00:52.135Z,4.60
2022-08-18T01:01:02.275Z,4.60
2022-08-18T01:01:12.110Z,4.80
2022-08-18T01:01:22.203Z,4.90
2022-08-18T01:01:32.270Z,4.70
2022-08-18T01:01:42.217Z,4.90
2022-08-18T01:01:52.177Z,5.00
2022-08-18T01:02:02.079Z,5.10
2022-08-18T01:02:12.017Z,5.10
2022-08-18T01:02:22.182Z,4.90
2022-08-18T01:02:31.975Z,4.70
2022-08-18T01:02:42.100Z,4.60
2022-08-18T01:02:52.224Z,5.00
2022-08-18T01:03:02.102Z,4.90
2022-08-18T01:03:12.130Z,4.80
2022-08-18T01:03:25.033Z,4.90
2022-08-18T01:03:32.238Z,5.10
2022-08-18T01:03:42.248Z,5.30
2022-08-18T01:03:52.101Z,5.10
2022-08-18T01:04:02.165Z,5.00
2022-08-18T01:04:11.966Z,4.70
2022-08-18T01:04:22.236Z,4.60
2022-08-18T01:04:32.225Z,4.50
2022-08-18T01:04:42.126Z,4.80
2022-08-18T01:04:52.211Z,4.90
2022-08-18T01:05:02.063Z,5.00
2022-08-18T01:05:12.005Z,4.70
2022-08-18T01:05:22.073Z,4.50
2022-08-18T01:05:32.196Z,4.60
2022-08-18T01:05:42.196Z,4.50
2022-08-18T01:05:52.247Z,4.70
2022-08-18T01:06:02.179Z,4.70
2022-08-18T01:06:12.197Z,4.70
2022-08-18T01:06:22.311Z,4.40
2022-08-18T01:06:32.139Z,4.40
2022-08-18T01:06:42.188Z,4.40
2022-08-18T01:06:52.001Z,4.80
2022-08-18T01:07:02.200Z,4.90
2022-08-18T01:07:12.156Z,5.10
2022-08-18T01:07:22.155Z,4.70
2022-08-18T01:07:32.177Z,4.70
2022-08-18T01:07:42.093Z,4.80
2022-08-18T01:07:52.344Z,5.10
2022-08-18T01:08:02.121Z,4.90
2022-08-18T01:08:12.124Z,4.70
2022-08-18T01:08:28.866Z,4.60
2022-08-18T01:08:32.080Z,4.40
2022-08-18T01:08:42.042Z,4.50
2022-08-18T01:08:52.266Z,4.50
2022-08-18T01:09:02.165Z,4.70
2022-08-18T01:09:11.973Z,4.60
2022-08-18T01:09:21.993Z,4.40
2022-08-18T01:09:32.061Z,4.30
2022-08-18T01:09:41.997Z,4.30
2022-08-18T01:09:52.109Z,4.80
2022-08-18T01:10:01.982Z,5.20
2022-08-18T01:10:12.201Z,5.80
2022-08-18T01:10:22.250Z,5.90
2022-08-18T01:10:32.083Z,5.80
2022-08-18T01:10:42.238Z,5.90
2022-08-18T01:10:52.062Z,6.00
2022-08-18T01:11:02.159Z,6.40
2022-08-18T01:11:12.029Z,6.30
2022-08-18T01:11:22.121Z,6.30
2022-08-18T01:11:31.993Z,6.00
2022-08-18T01:11:42.042Z,6.00
2022-08-18T01:11:52.043Z,6.00
2022-08-18T01:12:02.065Z,5.80
2022-08-18T01:12:43.809Z,5.60
2022-08-18T01:12:44.198Z,5.60
2022-08-18T01:12:45.721Z,5.60
2022-08-18T01:12:45.976Z,5.60
2022-08-18T01:12:52.059Z,5.50
2022-08-18T01:13:02.052Z,5.60
2022-08-18T01:13:12.068Z,5.50
2022-08-18T01:13:22.250Z,5.60
2022-08-18T01:13:32.355Z,5.70
2022-08-18T01:13:42.231Z,6.10
2022-08-18T01:13:52.331Z,6.30
2022-08-18T01:14:01.986Z,6.00
2022-08-18T01:14:11.983Z,5.50
2022-08-18T01:14:22.252Z,5.20
2022-08-18T01:14:32.118Z,5.30
2022-08-18T01:14:42.147Z,5.40
2022-08-18T01:14:52.124Z,5.60
2022-08-18T01:15:02.184Z,5.20
2022-08-18T01:15:13.863Z,5.20
2022-08-18T01:15:27.819Z,5.10
2022-08-18T01:15:32.009Z,5.40
2022-08-18T01:15:42.215Z,5.20
2022-08-18T01:15:52.245Z,5.00
2022-08-18T01:16:02.255Z,4.90
2022-08-18T01:16:11.982Z,4.70
2022-08-18T01:16:22.029Z,4.80
2022-08-18T01:16:32.070Z,4.70
2022-08-18T01:16:56.588Z,4.70
2022-08-18T01:16:57.069Z,4.70
2022-08-18T01:17:02.161Z,4.70
2022-08-18T01:17:11.969Z,4.90
2022-08-18T01:17:22.093Z,4.80
2022-08-18T01:17:32.109Z,4.90
2022-08-18T01:17:42.180Z,4.80
2022-08-18T01:17:52.531Z,4.70
2022-08-18T01:18:02.087Z,4.50
2022-08-18T01:18:12.042Z,4.40
2022-08-18T01:18:22.000Z,4.60
2022-08-18T01:18:32.225Z,4.80
2022-08-18T01:18:42.197Z,4.80
2022-08-18T01:18:52.121Z,4.70
2022-08-18T01:19:02.227Z,4.80
2022-08-18T01:19:11.981Z,4.80
2022-08-18T01:19:22.172Z,4.70
2022-08-18T01:19:32.223Z,4.70
2022-08-18T01:19:42.146Z,4.70
2022-08-18T01:19:52.236Z,4.90
2022-08-18T01:20:02.308Z,4.60
2022-08-18T01:20:11.995Z,4.50
2022-08-18T01:20:22.210Z,4.40
2022-08-18T01:20:32.089Z,4.50
2022-08-18T01:20:42.102Z,4.60
2022-08-18T01:20:52.096Z,4.70
2022-08-18T01:21:02.076Z,4.70
2022-08-18T01:21:12.154Z,4.50
2022-08-18T01:21:22.125Z,4.40
2022-08-18T01:21:32.211Z,4.40
2022-08-18T01:21:42.158Z,4.40
2022-08-18T01:21:52.233Z,4.50
2022-08-18T01:22:02.042Z,4.30
2022-08-18T01:22:12.173Z,4.30
2022-08-18T01:22:22.244Z,4.10
2022-08-18T01:22:32.217Z,4.50
2022-08-18T01:22:42.230Z,4.40
2022-08-18T01:22:52.048Z,4.60
2022-08-18T01:23:02.172Z,4.50
2022-08-18T01:23:12.034Z,4.60
2022-08-18T01:23:22.217Z,4.40
2022-08-18T01:23:32.018Z,4.30
2022-08-18T01:23:42.257Z,4.40
2022-08-18T01:23:52.013Z,4.30
2022-08-18T01:24:02.200Z,4.40
2022-08-18T01:24:12.094Z,4.30
2022-08-18T01:24:22.254Z,4.60
2022-08-18T01:24:32.014Z,4.70
2022-08-18T01:24:42.232Z,4.80
2022-08-18T01:24:51.970Z,4.70
2022-08-18T01:25:02.105Z,4.50
2022-08-18T01:25:12.065Z,4.30
2022-08-18T01:25:21.992Z,4.40
2022-08-18T01:25:31.966Z,4.20
2022-08-18T01:25:42.167Z,4.30
2022-08-18T01:25:52.169Z,4.30
2022-08-18T01:26:02.172Z,4.60
2022-08-18T01:26:12.196Z,4.40
2022-08-18T01:26:22.172Z,4.40
2022-08-18T01:26:32.001Z,4.20
2022-08-18T01:26:44.130Z,4.40
2022-08-18T01:26:52.116Z,4.30
2022-08-18T01:27:02.067Z,4.40
2022-08-18T01:27:12.127Z,4.30
2022-08-18T01:27:22.133Z,4.20
2022-08-18T01:27:32.133Z,4.20
2022-08-18T01:27:42.108Z,4.20
2022-08-18T01:27:52.387Z,4.40
2022-08-18T01:28:02.128Z,4.40
2022-08-18T01:28:12.089Z,4.70
2022-08-18T01:28:22.302Z,4.60
2022-08-18T01:28:32.224Z,4.70
2022-08-18T01:28:42.082Z,4.60
2022-08-18T01:28:52.137Z,4.60
2022-08-18T01:29:02.229Z,4.60
2022-08-18T01:29:18.919Z,4.70
2022-08-18T01:29:22.106Z,4.90
2022-08-18T01:29:32.217Z,4.70
2022-08-18T01:29:43.621Z,4.50
2022-08-18T01:29:52.163Z,4.30
2022-08-18T01:30:02.170Z,4.40
2022-08-18T01:30:12.192Z,4.50
2022-08-18T01:30:22.205Z,4.70
2022-08-18T01:30:32.257Z,4.60
2022-08-18T01:30:42.130Z,4.50
2022-08-18T01:30:51.975Z,4.40
2022-08-18T01:31:02.247Z,4.70
2022-08-18T01:31:12.082Z,4.70
2022-08-18T01:31:22.212Z,4.70
2022-08-18T01:31:32.163Z,4.50
2022-08-18T01:31:53.236Z,4.40
2022-08-18T01:31:54.360Z,4.30
2022-08-18T01:32:02.149Z,4.40
2022-08-18T01:32:12.098Z,4.40
2022-08-18T01:32:22.126Z,4.60
2022-08-18T01:32:32.011Z,4.30
2022-08-18T01:32:42.064Z,4.40
2022-08-18T01:32:52.068Z,4.30
2022-08-18T01:33:02.213Z,4.50
2022-08-18T01:33:12.052Z,4.50
2022-08-18T01:33:22.120Z,4.50
2022-08-18T01:33:32.102Z,4.30
2022-08-18T01:33:42.133Z,4.40
2022-08-18T01:33:51.966Z,4.60
2022-08-18T01:34:02.025Z,4.50
2022-08-18T01:34:12.192Z,4.20
2022-08-18T01:34:22.227Z,4.10
2022-08-18T01:34:32.083Z,4.40
2022-08-18T01:34:42.207Z,4.60
2022-08-18T01:34:52.045Z,4.40
2022-08-18T01:35:02.232Z,4.40
2022-08-18T01:35:12.154Z,4.50
2022-08-18T01:35:21.986Z,4.50
2022-08-18T01:35:36.155Z,4.50
2022-08-18T01:35:42.169Z,4.30
2022-08-18T01:35:52.035Z,4.40
2022-08-18T01:36:02.126Z,4.30
2022-08-18T01:36:12.223Z,4.20
2022-08-18T01:36:22.063Z,4.20
2022-08-18T01:36:32.216Z,4.10
2022-08-18T01:36:42.114Z,4.20
2022-08-18T01:36:51.993Z,4.30
2022-08-18T01:37:02.173Z,4.40
2022-08-18T01:37:12.017Z,4.30
2022-08-18T01:37:21.984Z,4.30
2022-08-18T01:37:32.223Z,4.40
2022-08-18T01:37:42.039Z,4.40
2022-08-18T01:37:52.187Z,4.30
2022-08-18T01:38:02.097Z,4.20
2022-08-18T01:38:12.261Z,4.40
2022-08-18T01:38:22.099Z,4.20
2022-08-18T01:38:32.013Z,4.20
2022-08-18T01:38:42.119Z,4.10
2022-08-18T01:38:52.228Z,4.30
2022-08-18T01:39:02.065Z,4.40
2022-08-18T01:39:12.169Z,4.40
2022-08-18T01:41:17.270Z,4.00
2022-08-18T01:41:17.334Z,4.30
2022-08-18T01:41:17.549Z,4.40
2022-08-18T01:41:21.074Z,4.10
2022-08-18T01:41:21.839Z,4.10
2022-08-18T01:41:21.928Z,4.20
2022-08-18T01:41:23.293Z,4.30
2022-08-18T01:41:24.066Z,4.40
2022-08-18T01:41:24.379Z,4.60
2022-08-18T01:41:26.042Z,4.50
2022-08-18T01:41:27.124Z,4.40
2022-08-18T01:41:27.424Z,4.20
2022-08-18T01:41:29.473Z,4.30
2022-08-18T01:41:32.308Z,4.10
2022-08-18T01:41:42.086Z,4.10
2022-08-18T01:41:52.155Z,4.20
2022-08-18T01:42:02.268Z,4.50
2022-08-18T01:42:12.103Z,4.40
2022-08-18T01:42:22.025Z,4.30
2022-08-18T01:42:32.379Z,4.10
2022-08-18T01:42:42.300Z,4.40
2022-08-18T01:42:52.137Z,4.40
2022-08-18T01:43:02.217Z,4.30
2022-08-18T01:43:12.109Z,4.10
2022-08-18T01:43:22.118Z,3.80
2022-08-18T01:43:32.018Z,3.70
2022-08-18T01:43:42.234Z,3.70
2022-08-18T01:43:52.128Z,4.00
2022-08-18T01:44:02.132Z,4.40
2022-08-18T01:44:12.137Z,4.10
2022-08-18T01:44:22.090Z,4.10
2022-08-18T01:44:32.194Z,4.10
2022-08-18T01:44:42.159Z,4.20
2022-08-18T01:44:51.970Z,4.30
2022-08-18T01:45:01.975Z,4.40
2022-08-18T01:45:12.252Z,4.50
2022-08-18T01:45:22.055Z,4.30
2022-08-18T01:45:32.079Z,4.30
2022-08-18T01:45:42.119Z,4.30
2022-08-18T01:45:52.063Z,4.40
2022-08-18T01:46:02.152Z,4.40
2022-08-18T01:46:12.136Z,4.30
2022-08-18T01:46:22.017Z,4.10
2022-08-18T01:46:32.053Z,4.00
2022-08-18T01:46:42.105Z,3.90
2022-08-18T01:46:52.228Z,4.10
2022-08-18T01:47:02.108Z,4.40
2022-08-18T01:47:12.234Z,4.60
2022-08-18T01:47:22.337Z,4.50
2022-08-18T01:47:33.009Z,4.30
2022-08-18T01:47:47.632Z,4.00
2022-08-18T01:47:51.997Z,4.00
2022-08-18T01:48:02.463Z,3.90
2022-08-18T01:48:11.983Z,4.10
2022-08-18T01:48:22.132Z,4.00
2022-08-18T01:48:32.065Z,4.00
2022-08-18T01:48:41.999Z,3.90
2022-08-18T01:48:52.220Z,4.30
2022-08-18T01:49:02.159Z,4.40
2022-08-18T01:49:12.035Z,4.50
2022-08-18T01:49:22.082Z,4.30
2022-08-18T01:49:31.997Z,4.30
2022-08-18T01:49:42.241Z,4.50
2022-08-18T01:49:52.085Z,4.50
2022-08-18T01:50:02.021Z,4.50
2022-08-18T01:50:12.182Z,4.30
2022-08-18T01:50:22.068Z,4.30
2022-08-18T01:50:32.151Z,4.10
2022-08-18T01:50:42.218Z,4.10
2022-08-18T01:50:51.988Z,4.10
2022-08-18T01:51:01.982Z,4.20
2022-08-18T01:51:12.070Z,4.30
2022-08-18T01:51:36.264Z,4.10
2022-08-18T01:51:38.935Z,4.30
2022-08-18T01:51:42.118Z,4.00
2022-08-18T01:51:52.097Z,4.20
2022-08-18T01:52:02.214Z,4.30
2022-08-18T01:52:12.213Z,4.10
2022-08-18T01:52:22.242Z,4.00
2022-08-18T01:52:32.001Z,4.30
2022-08-18T01:52:42.261Z,4.60
2022-08-18T01:52:52.045Z,4.40
2022-08-18T01:53:02.198Z,4.20
2022-08-18T01:53:12.183Z,4.00
2022-08-18T01:53:22.065Z,4.30
2022-08-18T01:53:32.162Z,4.20
2022-08-18T01:53:42.077Z,4.20
2022-08-18T01:53:52.051Z,4.20
2022-08-18T01:54:01.997Z,4.10
2022-08-18T01:54:12.135Z,4.30
2022-08-18T01:54:22.216Z,4.10
2022-08-18T01:54:32.154Z,4.20
2022-08-18T01:54:42.087Z,4.20
2022-08-18T01:54:52.182Z,4.40
2022-08-18T01:55:02.113Z,4.30
2022-08-18T01:55:11.986Z,4.10
2022-08-18T01:55:22.089Z,4.00
2022-08-18T01:55:32.202Z,4.20
2022-08-18T01:55:41.983Z,4.40
2022-08-18T01:55:52.141Z,4.40
2022-08-18T01:56:02.239Z,4.30
2022-08-18T01:56:12.162Z,4.30
2022-08-18T01:56:21.964Z,4.30
2022-08-18T01:56:32.025Z,4.30
2022-08-18T01:56:42.147Z,4.30
2022-08-18T01:56:52.241Z,4.50
2022-08-18T01:57:02.173Z,4.50
2022-08-18T01:57:12.041Z,4.40
2022-08-18T01:57:22.102Z,4.50
2022-08-18T01:57:32.273Z,4.40
2022-08-18T01:57:42.188Z,4.30
2022-08-18T01:57:52.511Z,4.20
2022-08-18T01:58:01.997Z,4.40
2022-08-18T01:58:12.189Z,4.40
2022-08-18T01:58:22.242Z,4.30
2022-08-18T01:58:32.044Z,4.10
2022-08-18T01:58:42.201Z,4.10
2022-08-18T01:58:55.171Z,4.10
2022-08-18T01:59:02.020Z,4.10
2022-08-18T01:59:12.204Z,4.10
2022-08-18T01:59:22.237Z,4.30
2022-08-18T01:59:32.270Z,4.40
2022-08-18T01:59:42.124Z,4.30
2022-08-18T01:59:52.150Z,4.00
2022-08-18T02:00:02.016Z,3.90
2022-08-18T02:00:12.479Z,3.90
2022-08-18T02:00:22.000Z,3.90
2022-08-18T02:00:32.243Z,4.10
2022-08-18T02:00:42.205Z,4.20
2022-08-18T02:00:52.001Z,4.30
2022-08-18T02:01:02.253Z,4.60
2022-08-18T02:01:12.120Z,4.60
2022-08-18T02:01:22.308Z,4.40
2022-08-18T02:01:36.492Z,4.30
2022-08-18T02:01:48.354Z,4.20
2022-08-18T02:01:53.429Z,4.40
2022-08-18T02:02:02.280Z,4.40
2022-08-18T02:02:12.381Z,4.50
2022-08-18T02:02:22.224Z,4.40
2022-08-18T02:02:32.241Z,4.50
2022-08-18T02:02:42.189Z,4.50
2022-08-18T02:02:58.005Z,4.80
2022-08-18T02:03:03.016Z,4.60
2022-08-18T02:03:12.045Z,4.60
2022-08-18T02:03:22.114Z,4.40
2022-08-18T02:03:32.019Z,4.30
2022-08-18T02:03:42.208Z,4.30
2022-08-18T02:03:52.112Z,4.30
2022-08-18T02:04:30.972Z,4.10
2022-08-18T02:04:33.785Z,4.10
2022-08-18T02:04:36.892Z,4.40
2022-08-18T02:04:37.630Z,4.10
2022-08-18T02:04:42.199Z,4.40
2022-08-18T02:04:52.058Z,4.30
2022-08-18T02:05:02.064Z,4.30
2022-08-18T02:05:12.047Z,4.20
2022-08-18T02:05:22.019Z,4.20
2022-08-18T02:05:32.043Z,4.10
2022-08-18T02:05:42.160Z,4.10
2022-08-18T02:05:52.196Z,4.20
2022-08-18T02:06:01.982Z,4.50
2022-08-18T02:06:13.859Z,4.40
2022-08-18T02:06:32.360Z,4.50
2022-08-18T02:06:33.824Z,4.40
2022-08-18T02:06:42.366Z,4.80
2022-08-18T02:06:52.241Z,4.70
2022-08-18T02:07:02.022Z,4.80
2022-08-18T02:07:12.273Z,4.60
2022-08-18T02:07:21.993Z,4.60
2022-08-18T02:07:36.069Z,4.30
2022-08-18T02:07:42.651Z,4.30
2022-08-18T02:07:53.489Z,4.10
2022-08-18T02:08:02.079Z,4.20
2022-08-18T02:08:12.214Z,4.30
2022-08-18T02:08:22.218Z,4.40
2022-08-18T02:08:31.975Z,4.30
2022-08-18T02:08:42.176Z,4.50
2022-08-18T02:08:53.779Z,4.30
2022-08-18T02:09:02.260Z,4.30
2022-08-18T02:09:12.182Z,4.20
2022-08-18T02:09:24.152Z,4.20
2022-08-18T02:09:32.033Z,4.00
2022-08-18T02:09:42.029Z,4.00
2022-08-18T02:09:52.075Z,4.10
2022-08-18T02:10:02.151Z,4.30
2022-08-18T02:10:12.464Z,4.40
2022-08-18T02:10:22.038Z,4.40
2022-08-18T02:10:32.070Z,4.40
2022-08-18T02:10:42.127Z,4.30
2022-08-18T02:10:52.262Z,4.10
2022-08-18T02:11:02.227Z,4.00
2022-08-18T02:11:11.988Z,4.20
2022-08-18T02:11:21.973Z,4.40
2022-08-18T02:11:32.067Z,4.50
2022-08-18T02:11:42.006Z,4.40
2022-08-18T02:11:53.057Z,4.30
2022-08-18T02:12:01.989Z,4.20
2022-08-18T02:12:12.134Z,4.30
2022-08-18T02:12:22.036Z,4.30
2022-08-18T02:12:32.219Z,4.40
2022-08-18T02:12:42.212Z,4.60
2022-08-18T02:12:52.015Z,4.70
2022-08-18T02:13:02.221Z,4.60